Time;durP1;ratioP1;P1;durP2;ratioP2;P2;SDS_P1;SDS_P2;PMS_P1;PMS_P2;Temp;Humidity;BMP_temperature;BMP_pressure;BME280_temperature;BME280_humidity;BME280_pressure;Samples;Min_cycle;Max_cycle;Signal;HPM_P1;HPM_P2
2021/08/12 00:00:40;;;;;;;;;9.25;9.00;;;;;24.12;49.27;101330.06;5060170;28;45696;-60
2021/08/12 00:03:05;;;;;;;;;11.00;11.00;;;;;24.11;49.45;101325.63;5073363;27;45436;-59
2021/08/12 00:05:32;;;;;;;;;12.33;10.67;;;;;24.11;49.44;101331.91;5059860;28;45246;-59
2021/08/12 00:07:57;;;;;;;;;12.25;12.25;;;;;24.12;49.47;101333.66;5056810;28;46179;-59
2021/08/12 00:10:23;;;;;;;;;10.50;10.50;;;;;24.13;49.72;101324.53;5059978;28;45359;-59
2021/08/12 00:12:48;;;;;;;;;13.75;13.75;;;;;24.15;49.72;101319.03;5057652;28;45347;-59
2021/08/12 00:15:14;;;;;;;;;13.33;12.33;;;;;24.17;49.79;101328.81;5059821;28;48033;-59
2021/08/12 00:17:40;;;;;;;;;13.75;13.00;;;;;24.19;49.74;101317.84;5066363;28;45633;-59
2021/08/12 00:20:06;;;;;;;;;12.00;12.00;;;;;24.20;49.47;101309.59;5062901;27;45370;-59
2021/08/12 00:22:32;;;;;;;;;10.00;10.00;;;;;24.18;49.76;101316.97;5059894;28;45821;-59
2021/08/12 00:24:57;;;;;;;;;13.75;11.25;;;;;24.17;49.27;101317.09;5059471;28;48334;-60
2021/08/12 00:27:23;;;;;;;;;13.67;11.33;;;;;24.15;49.64;101317.19;5059897;27;45234;-60
2021/08/12 00:29:49;;;;;;;;;12.25;12.25;;;;;24.15;49.52;101319.91;5060328;28;45296;-59
2021/08/12 00:32:15;;;;;;;;;12.25;12.25;;;;;24.12;49.40;101316.50;5060106;28;45302;-59
2021/08/12 00:34:41;;;;;;;;;12.33;12.33;;;;;24.10;49.76;101308.50;5058466;28;48245;-59
2021/08/12 00:37:06;;;;;;;;;11.00;11.00;;;;;24.07;49.59;101317.72;5059484;28;45692;-59
2021/08/12 00:39:32;;;;;;;;;12.67;12.33;;;;;24.04;49.92;101306.22;5058452;28;45403;-60
2021/08/12 00:41:58;;;;;;;;;12.00;12.00;;;;;24.00;49.95;101304.66;5060264;28;45480;-59
2021/08/12 00:44:24;;;;;;;;;12.00;11.50;;;;;23.98;50.11;101303.91;5059802;28;47356;-59
2021/08/12 00:46:49;;;;;;;;;12.00;12.00;;;;;23.98;50.10;101303.91;5059283;28;45450;-59
2021/08/12 00:49:15;;;;;;;;;14.25;14.00;;;;;23.99;50.16;101308.34;5060359;28;45386;-59
2021/08/12 00:51:41;;;;;;;;;13.25;12.50;;;;;24.00;50.04;101316.38;5060110;28;45587;-59
2021/08/12 00:54:06;;;;;;;;;14.25;13.00;;;;;24.01;50.51;101312.72;5059660;28;47466;-59
2021/08/12 00:56:33;;;;;;;;;14.50;12.75;;;;;24.00;50.46;101300.13;5059524;28;45516;-59
2021/08/12 00:58:58;;;;;;;;;20.75;17.75;;;;;24.01;50.26;101295.56;5060127;28;45634;-59
2021/08/12 01:01:25;;;;;;;;;12.75;12.75;;;;;23.96;50.38;101292.31;5053167;28;45453;-59
2021/08/12 01:03:50;;;;;;;;;13.75;12.25;;;;;23.92;50.11;101290.78;5057890;28;47310;-59
2021/08/12 01:06:24;;;;;;;;;17.75;14.50;;;;;23.90;50.85;101284.59;5058958;28;45298;-59
2021/08/12 01:09:06;;;;;;;;;15.50;15.50;;;;;23.85;50.76;101287.59;5058564;28;45463;-59
2021/08/12 01:11:38;;;;;;;;;19.50;16.75;;;;;23.83;50.78;101292.28;5074822;28;45444;-59
2021/08/12 01:14:35;;;;;;;;;16.25;14.00;;;;;23.77;50.98;101284.56;5053943;28;45473;-59
2021/08/12 01:17:04;;;;;;;;;17.25;16.00;;;;;23.74;50.92;101285.63;5040324;28;45840;-59
2021/08/12 01:20:00;;;;;;;;;20.25;19.00;;;;;23.71;51.23;101291.25;5063756;28;45275;-59
2021/08/12 01:22:27;;;;;;;;;21.50;21.50;;;;;23.70;51.08;101291.38;5056643;28;45433;-59
2021/08/12 01:24:56;;;;;;;;;18.50;18.00;;;;;23.69;51.49;101297.75;5058496;27;47288;-59
2021/08/12 01:27:27;;;;;;;;;23.25;20.25;;;;;23.69;51.52;101295.06;5058940;28;45416;-59
2021/08/12 01:30:06;;;;;;;;;23.75;21.75;;;;;23.71;51.64;101298.53;5057770;28;45456;-59
2021/08/12 01:32:56;;;;;;;;;23.75;23.00;;;;;23.71;51.86;101306.66;5055648;28;45512;-59
2021/08/12 01:35:22;;;;;;;;;20.50;20.50;;;;;23.70;51.62;101302.22;5072144;27;45947;-59
2021/08/12 01:37:53;;;;;;;;;21.25;19.00;;;;;23.70;51.99;101302.22;5058670;28;45664;-59
2021/08/12 01:40:21;;;;;;;;;24.00;24.00;;;;;23.69;51.67;101297.75;5059853;28;45432;-60
2021/08/12 01:42:48;;;;;;;;;25.00;23.50;;;;;23.68;51.96;101304.16;5059115;28;45280;-59
2021/08/12 01:45:15;;;;;;;;;20.50;20.50;;;;;23.67;52.06;101300.56;5058548;28;46333;-59
2021/08/12 01:47:43;;;;;;;;;17.75;16.50;;;;;23.67;51.88;101302.41;5054820;28;45751;-59
2021/08/12 01:50:13;;;;;;;;;20.00;20.00;;;;;23.67;51.85;101299.72;5057784;28;45397;-59
2021/08/12 01:52:41;;;;;;;;;19.50;17.50;;;;;23.68;52.06;101313.16;5059012;28;45483;-59
2021/08/12 01:55:09;;;;;;;;;16.75;16.75;;;;;23.68;52.11;101307.72;5058954;28;47168;-59
2021/08/12 01:57:36;;;;;;;;;16.75;16.25;;;;;23.69;51.88;101303.19;5059017;27;45492;-59
2021/08/12 02:00:04;;;;;;;;;22.00;21.75;;;;;23.69;51.84;101304.06;5059347;28;45598;-59
2021/08/12 02:02:31;;;;;;;;;18.25;18.25;;;;;23.69;51.90;101306.75;5082193;27;45650;-59
2021/08/12 02:04:56;;;;;;;;;17.50;15.75;;;;;23.68;51.83;101298.75;5057300;28;46316;-61
2021/08/12 02:07:22;;;;;;;;;16.00;16.00;;;;;23.67;51.71;101297.88;5057760;28;45705;-60
2021/08/12 02:09:47;;;;;;;;;17.00;13.75;;;;;23.65;51.57;101301.66;5056770;28;45408;-59
2021/08/12 02:12:13;;;;;;;;;14.00;13.00;;;;;23.63;51.42;101301.78;5058400;28;45658;-60
2021/08/12 02:14:39;;;;;;;;;13.67;12.67;;;;;23.62;51.67;101308.13;5056175;28;46873;-59
2021/08/12 02:17:05;;;;;;;;;14.75;14.75;;;;;23.61;51.55;101297.41;5048341;28;45219;-59
2021/08/12 02:19:32;;;;;;;;;12.67;10.67;;;;;23.57;51.70;101304.84;5058028;28;45364;-60
2021/08/12 02:22:02;;;;;;;;;13.25;13.25;;;;;23.56;51.48;101300.38;5056964;28;45857;-59
2021/08/12 02:24:37;;;;;;;;;13.00;12.75;;;;;23.54;51.56;101294.22;5057866;28;48474;-59
2021/08/12 02:27:10;;;;;;;;;12.75;12.00;;;;;23.51;51.65;101294.41;5058309;28;45576;-59
2021/08/12 02:29:37;;;;;;;;;12.67;11.67;;;;;23.50;51.65;101287.25;5061297;28;45420;-60
2021/08/12 02:32:06;;;;;;;;;13.00;13.00;;;;;23.48;51.75;101284.63;5061787;28;45497;-59
2021/08/12 02:34:34;;;;;;;;;11.00;11.00;;;;;23.49;51.84;101291.78;5059829;28;48173;-59
2021/08/12 02:37:03;;;;;;;;;14.00;14.00;;;;;23.49;51.80;101290.91;5073636;28;45906;-59
2021/08/12 02:39:30;;;;;;;;;14.00;13.00;;;;;23.49;51.97;101297.22;5054182;28;45366;-59
2021/08/12 02:41:57;;;;;;;;;13.75;13.75;;;;;23.49;51.47;101307.19;5054421;28;45457;-59
2021/08/12 02:44:24;;;;;;;;;13.00;11.33;;;;;23.45;51.79;101305.66;5061025;28;48023;-60
2021/08/12 02:46:51;;;;;;;;;12.25;11.75;;;;;23.42;51.81;101300.44;5060746;28;45412;-59
2021/08/12 02:49:18;;;;;;;;;12.67;12.67;;;;;23.39;51.97;101303.38;5061413;28;45295;-59
2021/08/12 02:51:44;;;;;;;;;9.33;9.33;;;;;23.39;52.12;101308.78;5061420;28;45614;-59
2021/08/12 02:54:10;;;;;;;;;15.00;14.75;;;;;23.38;51.98;101309.75;5061084;28;45362;-59
2021/08/12 02:56:36;;;;;;;;;13.00;13.00;;;;;23.36;52.26;101303.53;5060049;28;45565;-59
2021/08/12 02:59:03;;;;;;;;;13.67;11.67;;;;;23.35;52.08;101296.38;5061560;28;45664;-59
2021/08/12 03:01:30;;;;;;;;;13.00;13.00;;;;;23.32;52.03;101305.59;5057734;28;45405;-59
2021/08/12 03:03:57;;;;;;;;;11.00;11.00;;;;;23.30;52.23;101298.53;5077355;27;47583;-59
2021/08/12 03:06:24;;;;;;;;;15.75;13.25;;;;;23.28;52.21;101300.50;5058721;28;45300;-59
2021/08/12 03:08:52;;;;;;;;;13.00;13.00;;;;;23.26;52.21;101303.28;5060515;28;45641;-59
2021/08/12 03:11:20;;;;;;;;;13.50;11.50;;;;;23.26;52.42;101294.31;5061205;28;45486;-60
2021/08/12 03:13:48;;;;;;;;;12.50;11.25;;;;;23.22;52.82;101288.19;5060876;28;48673;-59
2021/08/12 03:16:13;;;;;;;;;10.67;9.67;;;;;23.22;52.60;101292.75;5059404;28;45266;-59
2021/08/12 03:18:39;;;;;;;;;11.00;10.00;;;;;23.20;52.66;101291.00;5060623;28;45300;-58
2021/08/12 03:21:12;;;;;;;;;9.67;9.00;;;;;23.21;52.73;101286.47;5061329;28;45517;-59
2021/08/12 03:23:40;;;;;;;;;12.00;11.00;;;;;23.18;52.78;101283.97;5060657;27;47301;-59
2021/08/12 03:26:06;;;;;;;;;12.00;10.67;;;;;23.14;52.79;101287.84;5061031;28;46059;-59
2021/08/12 03:28:32;;;;;;;;;11.00;10.00;;;;;23.10;52.75;101299.81;5060829;28;45314;-59
2021/08/12 03:30:58;;;;;;;;;13.33;12.00;;;;;23.05;53.10;101294.72;5060342;28;45495;-59
2021/08/12 03:33:25;;;;;;;;;12.00;11.00;;;;;23.02;52.82;101300.34;5060729;28;46927;-59
2021/08/12 03:35:51;;;;;;;;;9.67;9.67;;;;;22.98;52.65;101296.06;5060764;28;45463;-59
2021/08/12 03:38:18;;;;;;;;;13.00;12.00;;;;;22.97;53.02;101301.59;5060293;28;45408;-59
2021/08/12 03:40:44;;;;;;;;;9.67;9.67;;;;;22.96;53.34;101289.88;5059290;28;45493;-58
2021/08/12 03:43:09;;;;;;;;;9.00;9.00;;;;;22.95;53.22;101295.41;5060324;27;47399;-59
2021/08/12 03:45:35;;;;;;;;;15.75;14.75;;;;;22.94;53.18;101293.66;5060945;28;45733;-59
2021/08/12 03:48:00;;;;;;;;;9.75;9.75;;;;;22.95;53.11;101292.69;5060744;28;45271;-59
2021/08/12 03:50:26;;;;;;;;;12.00;12.00;;;;;22.96;53.46;101297.16;5061425;28;45701;-59
2021/08/12 03:52:51;;;;;;;;;9.33;8.67;;;;;22.97;53.36;101296.16;5060065;28;46374;-58
2021/08/12 03:55:17;;;;;;;;;12.67;11.67;;;;;22.95;53.65;101282.75;5063536;28;45339;-59
2021/08/12 03:57:43;;;;;;;;;9.00;9.00;;;;;22.94;52.89;101283.72;5060940;28;45494;-59
2021/08/12 04:00:11;;;;;;;;;12.75;12.75;;;;;22.92;53.67;101276.66;5060746;28;45843;-59
2021/08/12 04:02:36;;;;;;;;;11.50;11.25;;;;;22.89;53.56;101283.16;5059039;28;46039;-59
2021/08/12 04:05:02;;;;;;;;;12.00;12.00;;;;;22.87;53.60;101287.81;5059910;28;45562;-58
2021/08/12 04:07:28;;;;;;;;;11.25;10.75;;;;;22.86;53.50;101283.31;5057410;28;45381;-58
2021/08/12 04:09:53;;;;;;;;;14.00;13.00;;;;;22.86;53.47;101280.63;5060345;28;45342;-57
2021/08/12 04:12:19;;;;;;;;;10.33;10.33;;;;;22.83;53.54;101278.97;5058667;28;46362;-58
2021/08/12 04:14:44;;;;;;;;;11.00;11.00;;;;;22.81;53.26;101272.78;5057453;28;45430;-58
2021/08/12 04:17:10;;;;;;;;;13.00;13.00;;;;;22.80;53.61;101272.88;5060168;28;45351;-58
2021/08/12 04:19:35;;;;;;;;;13.33;13.33;;;;;22.79;53.73;101272.00;5060726;28;45672;-59
2021/08/12 04:22:00;;;;;;;;;10.00;10.00;;;;;22.79;53.36;101273.84;5060230;28;47602;-59
2021/08/12 04:24:27;;;;;;;;;14.00;12.67;;;;;22.80;53.76;101275.56;5060235;28;45239;-59
2021/08/12 04:26:52;;;;;;;;;14.33;13.00;;;;;22.78;54.04;101270.25;5060515;28;45704;-60
2021/08/12 04:29:18;;;;;;;;;12.33;12.33;;;;;22.78;53.49;101267.56;5042273;28;45425;-59
2021/08/12 04:31:43;;;;;;;;;11.67;11.33;;;;;22.78;54.14;101272.97;5055822;28;47784;-59
2021/08/12 04:34:10;;;;;;;;;12.33;12.00;;;;;22.78;53.67;101270.25;5058904;28;45640;-58
2021/08/12 04:36:36;;;;;;;;;13.00;12.33;;;;;22.77;53.87;101257.72;5060134;27;45346;-58
2021/08/12 04:39:02;;;;;;;;;15.00;13.00;;;;;22.78;54.01;101261.28;5060863;28;45611;-58
2021/08/12 04:41:27;;;;;;;;;15.00;15.00;;;;;22.77;54.19;101256.84;5059859;28;47231;-58
2021/08/12 04:43:53;;;;;;;;;15.33;13.67;;;;;22.77;53.89;101257.72;5059897;28;45326;-58
2021/08/12 04:46:20;;;;;;;;;10.67;10.67;;;;;22.73;53.51;101253.44;5060868;27;45216;-58
2021/08/12 04:48:46;;;;;;;;;11.67;11.33;;;;;22.71;54.19;101257.22;5060504;28;45448;-58
2021/08/12 04:51:11;;;;;;;;;15.00;12.67;;;;;22.68;54.21;101247.47;5059693;27;47542;-58
2021/08/12 04:53:37;;;;;;;;;12.00;11.67;;;;;22.68;53.99;101252.88;5062865;28;46072;-58
2021/08/12 04:56:02;;;;;;;;;13.33;13.33;;;;;22.68;53.95;101260.13;5060438;28;45502;-59
2021/08/12 04:58:28;;;;;;;;;14.33;13.33;;;;;22.68;54.04;101261.00;5060377;28;45568;-58
2021/08/12 05:00:53;;;;;;;;;9.67;9.67;;;;;22.69;54.14;101264.56;5052073;27;48194;-59
2021/08/12 05:03:19;;;;;;;;;13.00;13.00;;;;;22.70;54.00;101256.34;5083137;27;45600;-59
2021/08/12 05:05:44;;;;;;;;;10.67;10.33;;;;;22.73;53.83;101256.16;5058929;28;45374;-59
2021/08/12 05:08:10;;;;;;;;;13.00;13.00;;;;;22.75;53.90;101258.78;5058885;28;45639;-59
2021/08/12 05:10:35;;;;;;;;;13.00;11.33;;;;;22.76;54.25;101253.25;5058883;28;47288;-59
2021/08/12 05:13:00;;;;;;;;;12.33;12.33;;;;;22.75;54.06;101254.25;5059192;28;45416;-59
2021/08/12 05:15:27;;;;;;;;;9.00;9.00;;;;;22.78;54.07;101259.44;5057616;28;45676;-59
2021/08/12 05:17:53;;;;;;;;;11.75;11.75;;;;;22.80;54.12;101245.81;5051318;28;45377;-59
2021/08/12 05:20:18;;;;;;;;;12.50;11.00;;;;;22.81;53.91;101244.84;5057166;27;46308;-59
2021/08/12 05:22:44;;;;;;;;;15.50;14.50;;;;;22.81;54.05;101255.66;5058301;28;45315;-59
2021/08/12 05:25:09;;;;;;;;;12.25;12.25;;;;;22.80;53.85;101253.94;5059109;28;45480;-59
2021/08/12 05:27:35;;;;;;;;;11.33;11.33;;;;;22.78;54.09;101256.75;5059463;28;45642;-60
2021/08/12 05:30:01;;;;;;;;;11.50;11.50;;;;;22.79;54.15;101263.88;5058748;28;45631;-60
2021/08/12 05:32:26;;;;;;;;;14.00;14.00;;;;;22.81;54.16;101269.19;5059132;28;45231;-59
2021/08/12 05:34:52;;;;;;;;;12.25;12.00;;;;;22.79;54.13;101269.31;5057965;28;45256;-59
2021/08/12 05:37:17;;;;;;;;;14.67;14.67;;;;;22.79;54.46;101271.13;5058819;28;45674;-60
2021/08/12 05:39:43;;;;;;;;;11.50;11.50;;;;;22.79;54.20;101268.44;5058626;28;47818;-60
2021/08/12 05:42:08;;;;;;;;;13.25;13.00;;;;;22.78;54.07;101272.09;5059145;28;46034;-60
2021/08/12 05:44:34;;;;;;;;;12.25;12.25;;;;;22.79;53.91;101282.81;5058634;28;45428;-60
2021/08/12 05:46:59;;;;;;;;;16.00;16.00;;;;;22.80;54.51;101279.16;5059369;28;45398;-60
2021/08/12 05:49:25;;;;;;;;;11.25;11.25;;;;;22.82;54.42;101279.06;5057434;28;47150;-60
2021/08/12 05:51:52;;;;;;;;;15.50;13.50;;;;;22.82;54.22;101276.34;5058867;28;45420;-60
2021/08/12 05:54:18;;;;;;;;;12.50;12.50;;;;;22.81;54.11;101278.19;5048285;28;45380;-61
2021/08/12 05:56:43;;;;;;;;;13.75;13.25;;;;;22.81;54.01;101271.91;5050759;28;45574;-60
2021/08/12 05:59:09;;;;;;;;;11.50;11.50;;;;;22.82;54.47;101266.38;5056817;28;47225;-60
2021/08/12 06:01:34;;;;;;;;;14.00;14.00;;;;;22.83;54.29;101275.41;5060615;28;45318;-60
2021/08/12 06:04:00;;;;;;;;;14.25;14.25;;;;;22.84;54.25;101277.16;5060653;28;45517;-60
2021/08/12 06:06:25;;;;;;;;;15.25;14.75;;;;;22.86;54.00;101280.63;5062489;28;45468;-59
2021/08/12 06:08:51;;;;;;;;;12.25;12.25;;;;;22.89;53.96;101280.44;5061687;28;47315;-59
2021/08/12 06:11:16;;;;;;;;;15.50;13.75;;;;;22.89;54.21;101289.44;5058259;28;46015;-59
2021/08/12 06:13:42;;;;;;;;;13.00;12.00;;;;;22.89;54.16;101288.56;5062481;28;45367;-59
2021/08/12 06:16:07;;;;;;;;;13.00;13.00;;;;;22.88;54.23;101282.28;5077401;27;45448;-59
2021/08/12 06:18:33;;;;;;;;;17.00;15.50;;;;;22.90;54.08;101287.59;5058009;28;48392;-59
2021/08/12 06:20:59;;;;;;;;;12.50;12.50;;;;;22.92;54.22;101291.06;5062348;28;45886;-60
2021/08/12 06:23:24;;;;;;;;;13.50;13.50;;;;;22.94;54.18;101286.41;5061846;28;45336;-60
2021/08/12 06:25:50;;;;;;;;;17.00;15.00;;;;;22.96;54.22;101281.78;5062423;28;45492;-60
2021/08/12 06:28:16;;;;;;;;;14.33;12.00;;;;;22.97;54.36;101283.50;5060387;28;45441;-60
2021/08/12 06:30:41;;;;;;;;;17.67;15.67;;;;;22.97;53.82;101286.22;5060573;28;45424;-59
2021/08/12 06:33:07;;;;;;;;;16.50;16.50;;;;;22.98;54.08;101290.66;5059390;28;45270;-60
2021/08/12 06:35:35;;;;;;;;;15.33;13.33;;;;;23.00;54.11;101285.16;5061522;28;45441;-60
2021/08/12 06:38:03;;;;;;;;;14.25;14.00;;;;;23.02;53.99;101292.22;5061120;28;48032;-60
2021/08/12 06:40:29;;;;;;;;;14.75;14.75;;;;;23.05;53.80;101283.03;5058182;27;45967;-60
2021/08/12 06:42:55;;;;;;;;;15.25;13.50;;;;;23.06;53.85;101282.91;5059073;28;45405;-60
2021/08/12 06:45:22;;;;;;;;;14.50;14.25;;;;;23.10;53.74;101284.44;5054744;27;45459;-60
2021/08/12 06:47:48;;;;;;;;;15.50;14.00;;;;;23.13;53.85;101286.13;5061077;28;48372;-60
2021/08/12 06:50:16;;;;;;;;;18.50;16.50;;;;;23.15;53.86;101287.75;5060089;28;45445;-60
2021/08/12 06:52:42;;;;;;;;;13.33;13.33;;;;;23.16;53.67;101297.59;5060882;28;45386;-60
2021/08/12 06:55:08;;;;;;;;;19.00;18.00;;;;;23.16;53.70;101304.84;5061453;28;45363;-60
2021/08/12 06:57:34;;;;;;;;;15.25;13.75;;;;;23.16;53.85;101305.72;5059602;28;48109;-60
2021/08/12 06:59:59;;;;;;;;;20.00;18.00;;;;;23.16;53.83;101302.16;5061102;28;46117;-60
2021/08/12 07:02:25;;;;;;;;;14.25;14.25;;;;;23.15;53.53;101311.25;5059735;28;45797;-59
2021/08/12 07:04:50;;;;;;;;;18.00;18.00;;;;;23.15;54.01;101303.13;5061455;27;45526;-59
2021/08/12 07:07:16;;;;;;;;;15.25;12.75;;;;;23.16;53.82;101288.63;5058652;28;45485;-59
2021/08/12 07:09:42;;;;;;;;;15.75;14.50;;;;;23.13;53.70;101288.81;5057030;28;45331;-60
2021/08/12 07:12:08;;;;;;;;;16.50;16.00;;;;;23.14;53.59;101291.44;5060801;28;45398;-60
2021/08/12 07:14:34;;;;;;;;;14.50;14.50;;;;;23.15;53.78;101287.75;5059695;28;45564;-59
2021/08/12 07:17:00;;;;;;;;;14.50;12.00;;;;;23.14;54.04;101286.00;5059282;28;46270;-59
2021/08/12 07:19:26;;;;;;;;;16.00;15.00;;;;;23.16;53.91;101281.34;5058832;28;45381;-59
2021/08/12 07:21:52;;;;;;;;;15.25;14.00;;;;;23.19;53.93;101280.28;5056123;28;45388;-60
2021/08/12 07:24:18;;;;;;;;;16.75;16.75;;;;;23.20;53.91;101280.19;5059248;28;45571;-59
2021/08/12 07:26:46;;;;;;;;;16.75;16.25;;;;;23.23;53.61;101286.34;5060387;28;47618;-59
2021/08/12 07:29:12;;;;;;;;;17.25;17.25;;;;;23.23;53.66;101287.22;5059024;28;46248;-59
2021/08/12 07:31:38;;;;;;;;;11.33;10.00;;;;;23.25;53.57;101288.03;5051258;28;45457;-59
2021/08/12 07:34:04;;;;;;;;;14.00;13.25;;;;;23.26;53.56;101278.06;5056305;28;45448;-59
2021/08/12 07:36:29;;;;;;;;;11.33;11.33;;;;;23.29;53.69;101281.44;5047716;28;48294;-59
2021/08/12 07:38:55;;;;;;;;;13.50;13.00;;;;;23.32;53.59;101283.91;5059484;28;45412;-59
2021/08/12 07:41:20;;;;;;;;;16.00;14.00;;;;;23.34;53.73;101276.56;5054844;27;45454;-59
2021/08/12 07:43:46;;;;;;;;;13.75;13.75;;;;;23.39;53.61;101278.97;5060084;28;45546;-59
2021/08/12 07:46:12;;;;;;;;;15.00;14.25;;;;;23.43;53.68;101278.66;5059910;28;48445;-59
2021/08/12 07:48:37;;;;;;;;;16.33;15.33;;;;;23.49;53.71;101290.91;5055293;27;45516;-58
2021/08/12 07:51:03;;;;;;;;;16.00;16.00;;;;;23.54;53.51;101274.38;5053055;28;45419;-59
2021/08/12 07:53:29;;;;;;;;;20.50;17.75;;;;;23.58;53.50;101276.81;5058744;28;45406;-59
2021/08/12 07:55:56;;;;;;;;;16.50;15.50;;;;;23.60;53.27;101282.97;5059380;28;46984;-59
2021/08/12 07:58:23;;;;;;;;;16.75;16.00;;;;;23.63;53.21;101276.47;5059391;28;45354;-59
2021/08/12 08:00:48;;;;;;;;;15.25;15.25;;;;;23.68;53.36;101277.94;5058738;28;45600;-59
2021/08/12 08:03:14;;;;;;;;;15.00;15.00;;;;;23.71;53.10;101274.13;5059596;28;45864;-59
2021/08/12 08:05:39;;;;;;;;;19.25;18.75;;;;;23.75;53.12;101281.06;5059534;28;47507;-59
2021/08/12 08:08:05;;;;;;;;;13.00;12.00;;;;;23.78;53.21;101273.63;5050926;28;45367;-60
2021/08/12 08:10:31;;;;;;;;;14.00;13.00;;;;;23.82;52.97;101268.84;5048694;28;45674;-59
2021/08/12 08:12:56;;;;;;;;;14.33;14.33;;;;;23.84;52.92;101275.03;5059695;28;45571;-59
2021/08/12 08:15:23;;;;;;;;;15.67;13.67;;;;;23.85;53.08;101274.06;5059401;28;46777;-60
2021/08/12 08:17:48;;;;;;;;;18.00;16.00;;;;;23.88;53.18;101272.97;5058403;28;46405;-59
2021/08/12 08:20:15;;;;;;;;;15.33;15.33;;;;;23.90;53.25;101269.22;5059427;28;45483;-59
2021/08/12 08:22:40;;;;;;;;;15.00;14.33;;;;;23.95;52.94;101267.03;5059411;28;45715;-59
2021/08/12 08:25:07;;;;;;;;;12.33;12.33;;;;;23.96;53.15;101265.19;5051117;28;47514;-61
2021/08/12 08:27:33;;;;;;;;;16.33;16.33;;;;;23.98;53.11;101274.09;5049694;28;45591;-59
2021/08/12 08:29:59;;;;;;;;;14.33;13.67;;;;;24.02;53.11;101273.78;5056186;28;45710;-59
2021/08/12 08:32:25;;;;;;;;;13.67;13.67;;;;;24.05;52.90;101270.84;5058909;28;45336;-60
2021/08/12 08:34:54;;;;;;;;;14.33;14.33;;;;;24.08;53.00;101267.94;5097947;27;47018;-61
2021/08/12 08:37:19;;;;;;;;;13.33;13.33;;;;;24.13;53.06;101266.72;5063420;28;45471;-59
2021/08/12 08:39:45;;;;;;;;;11.00;11.00;;;;;24.17;53.19;101262.84;5058208;28;45455;-59
2021/08/12 08:42:12;;;;;;;;;15.00;13.75;;;;;24.18;53.28;101259.16;5054486;28;45409;-59
2021/08/12 08:44:40;;;;;;;;;14.00;13.33;;;;;24.22;53.00;101256.13;5058002;28;48478;-59
2021/08/12 08:47:08;;;;;;;;;11.75;11.75;;;;;24.26;53.04;101254.03;5059104;27;45407;-59
2021/08/12 08:49:38;;;;;;;;;17.33;16.00;;;;;24.29;53.02;101271.00;5059482;28;45663;-59
2021/08/12 08:52:04;;;;;;;;;17.67;13.33;;;;;24.32;52.67;101268.09;5059574;28;45522;-59
2021/08/12 08:54:31;;;;;;;;;12.33;11.33;;;;;24.35;52.68;101270.56;5059242;28;46039;-59
2021/08/12 08:56:58;;;;;;;;;10.33;10.33;;;;;24.38;52.71;101272.19;5054883;28;45465;-59
2021/08/12 08:59:25;;;;;;;;;13.67;13.67;;;;;24.41;52.46;101272.00;5056017;28;45460;-59
2021/08/12 09:01:50;;;;;;;;;15.00;15.00;;;;;24.45;52.72;101272.66;5058680;28;45329;-59
2021/08/12 09:04:16;;;;;;;;;12.00;11.67;;;;;24.45;52.28;101284.38;5058318;28;46002;-60
2021/08/12 09:06:41;;;;;;;;;14.67;13.00;;;;;24.47;52.42;101287.84;5058614;28;45433;-59
2021/08/12 09:09:09;;;;;;;;;12.67;12.33;;;;;24.49;52.34;101285.88;5058886;28;45622;-60
2021/08/12 09:11:35;;;;;;;;;12.67;11.00;;;;;24.50;52.36;101276.75;5071262;28;45610;-60
2021/08/12 09:14:35;;;;;;;;;14.00;12.00;;;;;24.53;52.11;101282.00;5078875;27;48262;-59
2021/08/12 09:17:22;;;;;;;;;14.67;14.67;;;;;24.59;52.39;101283.38;5056553;28;45364;-60
2021/08/12 09:20:16;;;;;;;;;13.75;13.75;;;;;24.62;52.33;101289.44;5071212;28;45513;-62
2021/08/12 09:23:00;;;;;;;;;16.25;14.75;;;;;24.65;52.28;101288.41;5072077;27;45530;-60
2021/08/12 09:25:42;;;;;;;;;12.75;11.00;;;;;24.69;52.42;101287.19;5058523;28;47656;-63
2021/08/12 09:28:12;;;;;;;;;13.25;13.00;;;;;24.73;52.59;101279.69;5057093;28;45858;-63
2021/08/12 09:30:39;;;;;;;;;13.25;13.25;;;;;24.77;52.22;101282.06;5058210;28;45388;-63
2021/08/12 09:33:04;;;;;;;;;15.00;14.75;;;;;24.81;51.93;101278.16;5057457;28;45531;-63
2021/08/12 09:35:30;;;;;;;;;11.00;11.00;;;;;24.85;52.14;101279.66;5056594;28;47307;-63
2021/08/12 09:38:09;;;;;;;;;11.75;11.75;;;;;24.91;52.48;101275.66;5055427;28;45936;-63
2021/08/12 09:40:35;;;;;;;;;13.25;13.25;;;;;24.97;51.82;101283.34;5056094;28;45440;-62
2021/08/12 09:43:03;;;;;;;;;13.75;12.75;;;;;25.04;51.96;101278.38;5040393;28;45560;-63
2021/08/12 09:45:31;;;;;;;;;10.25;9.50;;;;;25.10;51.36;101278.78;5051593;28;48167;-63
2021/08/12 09:48:12;;;;;;;;;10.25;10.25;;;;;25.16;51.84;101280.19;5058136;28;45302;-62
2021/08/12 09:50:39;;;;;;;;;14.00;14.00;;;;;25.20;51.20;101276.25;5047896;28;45408;-62
2021/08/12 09:53:06;;;;;;;;;13.75;11.75;;;;;25.26;51.24;101278.50;5054642;28;45559;-63
2021/08/12 09:55:40;;;;;;;;;12.50;12.50;;;;;25.30;50.90;101282.75;5057688;28;48395;-63
2021/08/12 09:58:05;;;;;;;;;14.50;14.50;;;;;25.34;51.32;101276.09;5049184;28;45607;-64
2021/08/12 10:00:35;;;;;;;;;12.75;11.50;;;;;25.38;51.22;101272.16;5055798;28;45363;-63
2021/08/12 10:03:22;;;;;;;;;14.75;14.75;;;;;25.43;51.12;101271.81;5058201;28;45516;-64
2021/08/12 10:05:48;;;;;;;;;13.25;13.25;;;;;25.47;50.83;101271.47;5045785;28;48479;-63
2021/08/12 10:08:25;;;;;;;;;15.67;14.67;;;;;25.50;50.78;101263.06;5056320;28;45402;-63
2021/08/12 10:10:51;;;;;;;;;11.67;10.33;;;;;25.54;51.01;101266.44;5065849;28;45339;-63
2021/08/12 10:13:16;;;;;;;;;11.67;11.00;;;;;25.56;50.62;101269.91;5053159;28;45353;-63
2021/08/12 10:15:48;;;;;;;;;17.33;15.00;;;;;25.60;50.90;101262.38;5057505;27;47250;-63
2021/08/12 10:18:17;;;;;;;;;16.00;15.25;;;;;25.62;50.44;101263.13;5057105;28;45326;-63
2021/08/12 10:20:44;;;;;;;;;12.33;12.33;;;;;25.64;50.43;101267.47;5057033;28;45584;-63
2021/08/12 10:23:10;;;;;;;;;17.75;16.25;;;;;25.67;49.96;101255.50;5055987;28;46035;-63
2021/08/12 10:25:36;;;;;;;;;14.00;14.00;;;;;25.70;50.18;101267.03;5053758;28;47564;-63
2021/08/12 10:28:07;;;;;;;;;15.00;13.33;;;;;25.72;49.87;101258.75;5057669;28;45262;-63
2021/08/12 10:30:34;;;;;;;;;12.00;11.67;;;;;25.76;50.14;101258.41;5057797;28;45420;-63
2021/08/12 10:33:02;;;;;;;;;12.00;11.00;;;;;25.78;50.25;101261.00;5059171;28;45457;-64
2021/08/12 10:35:34;;;;;;;;;9.75;9.75;;;;;25.82;50.18;101259.78;5053509;28;48384;-65
2021/08/12 10:38:01;;;;;;;;;13.67;11.33;;;;;25.86;49.82;101263.13;5056966;28;45508;-65
2021/08/12 10:40:35;;;;;;;;;10.67;10.00;;;;;25.90;49.69;101260.06;5045612;28;45354;-64
2021/08/12 10:43:02;;;;;;;;;12.67;11.33;;;;;25.95;49.99;101255.13;5039799;28;45421;-63
2021/08/12 10:45:29;;;;;;;;;12.25;11.25;;;;;26.01;49.52;101261.94;5032695;28;46936;-63
2021/08/12 10:47:57;;;;;;;;;18.00;15.00;;;;;26.05;49.83;101253.44;5056255;28;45970;-63
2021/08/12 10:50:22;;;;;;;;;12.00;12.00;;;;;26.08;49.55;101253.19;5059781;28;45311;-64
2021/08/12 10:53:10;;;;;;;;;12.25;12.25;;;;;26.12;49.07;101253.81;5060829;28;44938;-65
2021/08/12 10:55:38;;;;;;;;;13.50;13.25;;;;;26.16;48.97;101251.72;5061166;28;48001;-64
2021/08/12 11:01:06;;;;;;;;;13.00;12.75;;;;;26.21;48.96;101252.25;5059475;28;45576;-62
2021/08/12 11:03:31;;;;;;;;;13.25;12.00;;;;;26.24;49.32;101252.84;5060860;28;45528;-62
2021/08/12 11:06:05;;;;;;;;;13.00;12.00;;;;;26.27;49.12;101241.72;5061101;28;47240;-62
2021/08/12 11:08:53;;;;;;;;;14.75;12.75;;;;;26.29;49.33;101247.03;5060859;28;45433;-63
2021/08/12 11:11:28;;;;;;;;;15.25;14.75;;;;;26.31;49.34;101245.09;5054713;28;45469;-62
2021/08/12 11:13:55;;;;;;;;;11.00;11.00;;;;;26.32;48.77;101250.41;5058726;28;45378;-62